Terminal Aerodrome Forecast
Issued by NWS

Home | Current Version | Previous Version | Text Only | Print | Product List | Glossary On
Versions: 1 2 3 4 5 6 7 8 9 10 11 12 13 14 15
000
FTUS42 KGSP 241841 AAB
TAFGMU
TAF AMD
KGMU 241841Z 2419/2518 VRB04KT P6SM FEW040
     FM250200 VRB03KT P6SM BKN070
     FM251100 VRB02KT P6SM BKN007
      TEMPO 2511/2513 BKN003
     FM251300 18004KT P6SM BKN015
     FM251700 21007KT P6SM BKN035=

USA.gov is the U.S. government's official web portal to all federal, state and local government web resources and services.